Time;durP1;ratioP1;P1;durP2;ratioP2;P2;SDS_P1;SDS_P2;PMS_P1;PMS_P2;Temp;Humidity;BMP_temperature;BMP_pressure;BME280_temperature;BME280_humidity;BME280_pressure;Samples;Min_cycle;Max_cycle;Signal;HPM_P1;HPM_P2
2020/12/20 00:01:26;;;;;;;4.47;3.73;;;10.60;99.90;;;;;;5088470;28;20465;-78
2020/12/20 00:03:54;;;;;;;5.70;4.00;;;10.60;99.90;;;;;;5083997;28;20454;-79
2020/12/20 00:06:21;;;;;;;4.40;2.90;;;10.50;99.90;;;;;;5085981;28;20543;-78
2020/12/20 00:08:48;;;;;;;4.60;2.87;;;10.60;99.90;;;;;;5062809;28;21012;-77
2020/12/20 00:11:16;;;;;;;2.70;2.47;;;10.50;99.90;;;;;;5082966;28;20469;-75
2020/12/20 00:13:43;;;;;;;2.70;2.50;;;10.50;99.90;;;;;;5083870;28;21098;-77
2020/12/20 00:16:10;;;;;;;4.10;3.80;;;10.40;99.90;;;;;;5067279;28;20546;-77
2020/12/20 00:18:38;;;;;;;20.70;10.30;;;10.40;99.90;;;;;;5067420;28;20524;-78
2020/12/20 00:21:05;;;;;;;6.43;4.27;;;10.40;99.90;;;;;;5081757;28;20866;-77
2020/12/20 00:23:32;;;;;;;5.60;4.30;;;10.40;99.90;;;;;;5086049;28;20460;-77
2020/12/20 00:26:06;;;;;;;12.70;7.20;;;10.40;99.90;;;;;;5081148;28;20974;-76
2020/12/20 00:28:33;;;;;;;8.63;5.60;;;10.30;99.90;;;;;;5069200;28;20481;-77
2020/12/20 00:31:00;;;;;;;5.43;4.07;;;10.20;99.90;;;;;;5082785;28;20480;-76
2020/12/20 00:33:27;;;;;;;3.87;3.57;;;10.10;99.90;;;;;;5066725;28;20481;-76
2020/12/20 00:35:55;;;;;;;6.13;3.73;;;10.00;99.90;;;;;;5091015;28;20514;-76
2020/12/20 00:38:22;;;;;;;4.37;3.70;;;10.00;99.90;;;;;;5090024;28;20494;-76
2020/12/20 00:40:50;;;;;;;3.90;3.60;;;10.10;99.90;;;;;;5085366;28;20631;-77
2020/12/20 00:43:17;;;;;;;4.50;3.87;;;10.00;99.90;;;;;;5083923;28;20866;-75
2020/12/20 00:45:49;;;;;;;6.90;3.73;;;10.10;99.90;;;;;;5090128;28;20979;-75
2020/12/20 00:48:16;;;;;;;4.30;3.23;;;10.20;99.90;;;;;;5090165;28;20483;-75
2020/12/20 00:50:44;;;;;;;11.60;5.50;;;10.30;99.90;;;;;;5094348;28;20526;-78
2020/12/20 00:53:12;;;;;;;16.60;7.40;;;10.30;99.90;;;;;;5087571;28;20490;-76
2020/12/20 00:55:39;;;;;;;32.43;13.27;;;10.30;99.90;;;;;;5090181;28;20848;-77
2020/12/20 00:58:06;;;;;;;18.47;8.57;;;10.40;99.90;;;;;;5088376;28;20919;-78
2020/12/20 01:00:33;;;;;;;19.80;8.50;;;10.40;99.90;;;;;;5089689;28;20472;-79
2020/12/20 01:03:00;;;;;;;6.67;4.27;;;10.40;99.90;;;;;;5088972;28;20973;-75
2020/12/20 01:05:27;;;;;;;9.57;5.70;;;10.50;99.90;;;;;;5087721;28;20449;-76
2020/12/20 01:07:54;;;;;;;23.87;10.37;;;10.50;99.90;;;;;;5072865;28;20482;-75
2020/12/20 01:10:22;;;;;;;27.93;12.63;;;10.50;99.90;;;;;;5067725;28;20476;-78
2020/12/20 01:12:49;;;;;;;17.27;7.27;;;10.50;99.90;;;;;;5089207;28;21191;-77
2020/12/20 01:15:16;;;;;;;14.70;6.77;;;10.40;99.90;;;;;;5086343;28;20903;-77
2020/12/20 01:17:43;;;;;;;18.97;7.10;;;10.50;99.90;;;;;;5088438;28;20461;-75
2020/12/20 01:20:10;;;;;;;15.30;7.33;;;10.50;99.90;;;;;;5085605;28;20513;-76
2020/12/20 01:22:37;;;;;;;19.83;8.30;;;10.50;99.90;;;;;;5071331;28;20989;-78
2020/12/20 01:25:05;;;;;;;18.70;7.63;;;10.50;99.90;;;;;;5070077;28;20448;-74
2020/12/20 01:27:33;;;;;;;11.67;5.40;;;10.40;99.90;;;;;;5099267;28;20475;-80
2020/12/20 01:30:00;;;;;;;2.60;2.40;;;10.30;99.90;;;;;;5108931;28;20465;-75
2020/12/20 01:32:27;;;;;;;8.13;6.43;;;10.30;99.90;;;;;;5087939;28;20487;-75
2020/12/20 01:34:54;;;;;;;7.23;4.43;;;10.10;99.90;;;;;;5073272;28;20464;-75
2020/12/20 01:37:21;;;;;;;4.97;4.07;;;10.10;99.90;;;;;;5090584;28;20470;-75
2020/12/20 01:39:48;;;;;;;3.70;2.63;;;10.00;99.90;;;;;;5085440;28;20565;-75
2020/12/20 01:42:15;;;;;;;4.47;3.83;;;10.00;99.90;;;;;;5080451;28;20448;-74
2020/12/20 01:44:43;;;;;;;4.00;3.13;;;10.20;99.90;;;;;;5094048;28;20506;-74
2020/12/20 01:47:13;;;;;;;3.77;3.47;;;10.40;99.90;;;;;;5094689;28;20454;-76
2020/12/20 01:49:56;;;;;;;3.13;2.73;;;10.30;99.90;;;;;;5083417;28;20565;-76
2020/12/20 01:52:23;;;;;;;4.87;3.50;;;10.30;99.90;;;;;;5079811;28;20302;-75
2020/12/20 01:54:51;;;;;;;7.33;2.93;;;10.40;99.90;;;;;;5074790;28;20878;-75
2020/12/20 01:57:18;;;;;;;3.40;3.00;;;10.50;99.90;;;;;;5084745;28;20468;-78
2020/12/20 01:59:47;;;;;;;7.80;4.80;;;10.60;99.90;;;;;;5079078;28;22426;-75
2020/12/20 02:02:14;;;;;;;7.53;4.00;;;10.50;99.90;;;;;;5083005;28;20968;-75
2020/12/20 02:04:42;;;;;;;4.00;3.20;;;10.40;99.90;;;;;;5088454;28;20528;-77
2020/12/20 02:07:10;;;;;;;4.60;3.40;;;10.40;99.90;;;;;;5069954;28;20856;-76
2020/12/20 02:09:37;;;;;;;3.60;3.30;;;10.20;99.90;;;;;;5088804;28;20636;-75
2020/12/20 02:12:04;;;;;;;2.83;2.63;;;10.10;99.90;;;;;;5083379;28;20483;-76
2020/12/20 02:14:32;;;;;;;3.33;2.80;;;10.00;99.90;;;;;;5087005;28;20470;-76
2020/12/20 02:17:00;;;;;;;3.20;2.93;;;9.90;99.90;;;;;;5086894;28;20560;-75
2020/12/20 02:19:28;;;;;;;2.93;2.60;;;9.80;99.90;;;;;;5068210;28;20496;-75
2020/12/20 02:21:56;;;;;;;3.17;2.67;;;9.80;99.90;;;;;;5064517;28;20526;-75
2020/12/20 02:24:23;;;;;;;2.77;2.03;;;9.80;99.90;;;;;;5078591;28;20563;-76
2020/12/20 02:26:50;;;;;;;5.30;2.77;;;9.70;99.90;;;;;;5087616;28;20947;-75
2020/12/20 02:29:17;;;;;;;3.00;2.80;;;9.70;99.90;;;;;;5085269;28;20531;-77
2020/12/20 02:31:44;;;;;;;3.03;2.43;;;9.70;99.90;;;;;;5085339;28;20814;-75
2020/12/20 02:34:11;;;;;;;2.43;2.23;;;9.70;99.90;;;;;;5080244;28;20451;-77
2020/12/20 02:36:38;;;;;;;3.70;2.77;;;9.60;99.90;;;;;;5083427;28;20470;-77
2020/12/20 02:39:08;;;;;;;3.63;2.67;;;9.60;99.90;;;;;;5083076;28;20547;-75
2020/12/20 02:41:36;;;;;;;3.43;2.00;;;9.50;99.90;;;;;;5079704;28;20467;-76
2020/12/20 02:44:04;;;;;;;2.60;2.40;;;9.50;99.90;;;;;;5084230;28;20461;-75
2020/12/20 02:46:31;;;;;;;2.40;1.97;;;9.50;99.90;;;;;;5080258;28;20514;-75
2020/12/20 02:48:58;;;;;;;3.10;2.80;;;9.50;99.90;;;;;;5096885;28;20483;-77
2020/12/20 02:51:25;;;;;;;3.77;3.00;;;9.50;99.90;;;;;;5081529;28;20511;-77
2020/12/20 02:53:53;;;;;;;2.67;2.40;;;9.50;99.90;;;;;;5089871;28;20600;-77
2020/12/20 02:56:22;;;;;;;2.10;1.90;;;9.60;99.90;;;;;;5088220;28;20476;-77
2020/12/20 02:58:50;;;;;;;2.90;2.70;;;9.60;99.90;;;;;;5084402;28;20483;-75
2020/12/20 03:01:17;;;;;;;2.90;2.13;;;9.70;99.90;;;;;;5065263;28;22143;-76
2020/12/20 03:03:44;;;;;;;2.83;2.33;;;9.70;99.90;;;;;;5071870;28;20457;-77
2020/12/20 03:06:11;;;;;;;2.60;2.33;;;9.60;99.90;;;;;;5087060;28;20541;-75
2020/12/20 03:08:38;;;;;;;5.17;2.67;;;9.70;99.90;;;;;;5085819;28;20534;-74
2020/12/20 03:11:05;;;;;;;2.50;2.30;;;9.70;99.90;;;;;;5060201;28;20471;-76
2020/12/20 03:13:33;;;;;;;2.20;2.07;;;9.80;99.90;;;;;;5084145;28;20488;-76
2020/12/20 03:16:01;;;;;;;2.70;2.50;;;9.80;99.90;;;;;;5084363;28;20471;-75
2020/12/20 03:18:28;;;;;;;2.63;2.43;;;9.60;99.90;;;;;;5081282;28;20495;-76
2020/12/20 03:20:56;;;;;;;2.67;2.47;;;9.60;99.90;;;;;;5074184;28;20462;-78
2020/12/20 03:23:23;;;;;;;3.47;2.80;;;9.60;99.90;;;;;;5080642;28;20234;-75
2020/12/20 03:25:50;;;;;;;2.63;2.40;;;9.60;99.90;;;;;;5084342;28;20518;-73
2020/12/20 03:28:17;;;;;;;2.20;2.00;;;9.70;99.90;;;;;;5082541;28;20549;-75
2020/12/20 03:30:45;;;;;;;2.50;2.30;;;9.50;99.90;;;;;;5065291;28;20522;-76
2020/12/20 03:33:13;;;;;;;3.33;2.60;;;9.40;99.90;;;;;;5067372;28;20485;-75
2020/12/20 03:35:40;;;;;;;2.83;2.63;;;9.40;99.90;;;;;;5060036;28;20457;-76
2020/12/20 03:38:07;;;;;;;3.87;2.70;;;9.60;99.90;;;;;;5081938;28;20547;-74
2020/12/20 03:40:34;;;;;;;3.67;3.37;;;9.60;99.90;;;;;;5092717;28;20453;-74
2020/12/20 03:43:01;;;;;;;2.63;2.40;;;9.60;99.90;;;;;;5081323;28;21324;-74
2020/12/20 03:45:28;;;;;;;2.80;2.60;;;9.70;99.90;;;;;;5085607;28;20458;-75
2020/12/20 03:47:56;;;;;;;2.30;2.10;;;9.70;99.90;;;;;;5077542;28;20484;-78
2020/12/20 03:50:23;;;;;;;2.17;2.03;;;9.70;99.90;;;;;;5085901;28;20563;-76
2020/12/20 03:52:50;;;;;;;2.70;2.50;;;9.60;99.90;;;;;;5084002;28;20490;-74
2020/12/20 03:55:17;;;;;;;3.67;2.53;;;9.50;99.90;;;;;;5086173;28;20453;-74
2020/12/20 03:57:44;;;;;;;7.83;2.33;;;9.50;99.90;;;;;;5081927;28;20451;-73
2020/12/20 04:00:11;;;;;;;2.33;2.13;;;9.50;99.90;;;;;;5081620;28;20462;-73
2020/12/20 04:02:38;;;;;;;3.03;2.83;;;9.60;99.90;;;;;;5083139;28;20489;-74
2020/12/20 04:05:06;;;;;;;3.23;2.07;;;9.60;99.90;;;;;;5090781;28;20461;-72
2020/12/20 04:07:33;;;;;;;1.93;1.83;;;9.50;99.90;;;;;;5085744;28;20488;-75
2020/12/20 04:10:01;;;;;;;3.30;2.80;;;9.50;99.90;;;;;;5084442;28;20461;-74
2020/12/20 04:12:28;;;;;;;3.10;2.83;;;9.50;99.90;;;;;;5081302;28;20477;-74
2020/12/20 04:14:55;;;;;;;2.87;2.63;;;9.50;99.90;;;;;;5062832;28;20876;-74
2020/12/20 04:17:22;;;;;;;4.03;2.40;;;9.40;99.90;;;;;;5083706;28;20794;-75
2020/12/20 04:19:49;;;;;;;3.07;2.87;;;9.30;99.90;;;;;;5082074;28;20480;-75
2020/12/20 04:22:17;;;;;;;3.97;3.37;;;9.30;99.90;;;;;;5068725;28;20971;-74
2020/12/20 04:24:44;;;;;;;3.00;2.50;;;9.30;99.90;;;;;;5085227;28;20472;-74
2020/12/20 04:27:11;;;;;;;2.77;2.57;;;9.50;99.90;;;;;;5090098;28;20468;-75
2020/12/20 04:29:38;;;;;;;3.33;2.50;;;9.30;99.90;;;;;;5084716;28;20504;-78
2020/12/20 04:32:05;;;;;;;3.20;2.90;;;9.40;99.90;;;;;;5067525;28;20471;-76
2020/12/20 04:34:33;;;;;;;4.00;2.97;;;9.50;99.90;;;;;;5087237;28;20522;-74
2020/12/20 04:37:00;;;;;;;3.13;2.93;;;9.50;99.90;;;;;;5089358;28;20539;-75
2020/12/20 04:39:28;;;;;;;3.00;2.80;;;9.40;99.90;;;;;;5087083;28;20485;-77
2020/12/20 04:41:55;;;;;;;3.33;2.33;;;9.30;99.90;;;;;;5075024;28;20481;-74
2020/12/20 04:44:22;;;;;;;3.07;2.57;;;9.20;99.90;;;;;;5087358;28;20514;-74
2020/12/20 04:46:50;;;;;;;3.33;2.43;;;9.30;99.90;;;;;;5089264;28;20727;-74
2020/12/20 04:49:17;;;;;;;3.13;2.87;;;9.50;99.90;;;;;;5086969;28;20478;-74
2020/12/20 04:51:53;;;;;;;2.60;2.40;;;9.60;99.90;;;;;;5086040;28;20460;-75
2020/12/20 04:54:23;;;;;;;2.53;2.33;;;9.60;99.90;;;;;;5090432;28;20518;-74
2020/12/20 04:56:51;;;;;;;2.40;2.20;;;9.70;99.90;;;;;;5091850;28;20464;-75
2020/12/20 04:59:18;;;;;;;4.20;2.70;;;9.70;99.90;;;;;;5086103;28;20484;-75
2020/12/20 05:01:46;;;;;;;2.70;2.50;;;9.60;99.90;;;;;;5084478;28;21417;-73
2020/12/20 05:04:13;;;;;;;2.50;2.07;;;9.70;99.90;;;;;;5087299;28;20470;-73
2020/12/20 05:06:40;;;;;;;3.17;2.57;;;9.80;99.90;;;;;;5086213;28;20469;-75
2020/12/20 05:09:07;;;;;;;3.80;2.60;;;9.80;99.90;;;;;;5084355;28;20481;-77
2020/12/20 05:11:37;;;;;;;2.50;2.13;;;9.80;99.90;;;;;;5084569;28;20467;-76
2020/12/20 05:14:07;;;;;;;3.30;3.00;;;9.80;99.90;;;;;;5066402;28;20514;-75
2020/12/20 05:16:36;;;;;;;3.07;2.73;;;9.60;99.90;;;;;;5088665;28;20471;-74
2020/12/20 05:19:05;;;;;;;2.47;2.27;;;9.70;99.90;;;;;;5090889;28;20909;-74
2020/12/20 05:21:34;;;;;;;3.93;3.50;;;9.60;99.90;;;;;;5090051;28;20814;-74
2020/12/20 05:24:21;;;;;;;4.23;3.10;;;9.60;99.90;;;;;;5086943;28;20548;-73
2020/12/20 05:26:49;;;;;;;3.67;2.90;;;9.50;99.90;;;;;;5083353;28;20453;-75
2020/12/20 05:29:18;;;;;;;3.13;2.53;;;9.50;99.90;;;;;;5069452;28;21355;-74
2020/12/20 05:31:45;;;;;;;3.07;2.77;;;9.70;99.90;;;;;;5082330;28;20699;-76
2020/12/20 05:34:12;;;;;;;4.20;2.80;;;9.90;99.90;;;;;;5076126;28;20495;-74
2020/12/20 05:36:39;;;;;;;3.30;3.00;;;9.90;99.90;;;;;;5088537;28;20458;-73
2020/12/20 05:39:14;;;;;;;3.10;2.80;;;9.90;99.90;;;;;;5082617;28;20493;-74
2020/12/20 05:41:41;;;;;;;2.57;2.37;;;10.00;99.90;;;;;;5060525;28;20458;-75
2020/12/20 05:44:16;;;;;;;3.97;3.57;;;10.00;99.90;;;;;;5080739;28;20509;-75
2020/12/20 05:46:46;;;;;;;4.57;3.33;;;10.00;99.90;;;;;;5079086;28;20564;-74
2020/12/20 05:49:18;;;;;;;3.83;3.30;;;10.00;99.90;;;;;;5079717;28;20935;-75
2020/12/20 05:52:06;;;;;;;5.23;2.70;;;9.80;99.90;;;;;;5086481;28;20856;-78
2020/12/20 05:54:35;;;;;;;5.10;3.53;;;9.90;99.90;;;;;;5102244;28;20515;-78
2020/12/20 05:57:06;;;;;;;2.83;2.63;;;9.90;99.90;;;;;;5077674;28;20562;-74
2020/12/20 05:59:34;;;;;;;2.70;2.50;;;9.90;99.90;;;;;;5082816;28;20482;-75
2020/12/20 06:02:03;;;;;;;2.90;2.70;;;9.80;99.90;;;;;;5059417;28;20475;-76
2020/12/20 06:04:31;;;;;;;2.93;2.43;;;9.80;99.90;;;;;;5058825;28;20460;-73
2020/12/20 06:06:59;;;;;;;2.87;2.43;;;9.80;99.90;;;;;;5087718;28;20463;-77
2020/12/20 06:09:28;;;;;;;2.80;2.40;;;9.70;99.90;;;;;;5078111;28;20483;-73
2020/12/20 06:11:57;;;;;;;3.40;3.10;;;9.60;99.90;;;;;;5054179;28;21265;-75
2020/12/20 06:14:27;;;;;;;3.23;3.00;;;9.50;99.90;;;;;;5077328;28;20486;-75
2020/12/20 06:17:14;;;;;;;3.00;2.80;;;9.50;99.90;;;;;;5084352;28;21173;-73
2020/12/20 06:20:00;;;;;;;3.77;2.70;;;9.60;99.90;;;;;;5080610;28;20700;-76
2020/12/20 06:22:53;;;;;;;3.30;3.00;;;9.70;99.90;;;;;;5078647;28;20459;-74
2020/12/20 06:25:24;;;;;;;3.30;3.00;;;9.70;99.90;;;;;;5079929;28;20531;-73
2020/12/20 06:27:51;;;;;;;4.60;3.23;;;9.60;99.90;;;;;;5060231;28;20487;-73
2020/12/20 06:30:21;;;;;;;3.47;3.17;;;9.60;99.90;;;;;;5081204;28;20498;-76
2020/12/20 06:32:52;;;;;;;3.20;2.93;;;9.60;99.90;;;;;;5078393;28;21358;-77
2020/12/20 06:35:22;;;;;;;2.57;2.37;;;9.40;99.90;;;;;;5083664;28;20468;-73
2020/12/20 06:37:50;;;;;;;3.13;2.50;;;9.30;99.90;;;;;;5082040;28;20483;-73
2020/12/20 06:40:40;;;;;;;3.17;2.73;;;9.20;99.90;;;;;;5083120;28;20466;-73
2020/12/20 06:43:07;;;;;;;2.83;2.23;;;9.10;99.90;;;;;;5065097;28;21082;-74
2020/12/20 06:45:40;;;;;;;2.60;2.40;;;9.20;99.90;;;;;;5081957;28;21050;-74
2020/12/20 06:48:09;;;;;;;2.83;2.53;;;9.30;99.90;;;;;;5079426;28;20477;-74
2020/12/20 06:50:42;;;;;;;2.73;2.47;;;9.40;99.90;;;;;;5078439;28;20532;-74
2020/12/20 06:53:10;;;;;;;2.90;2.70;;;9.40;99.90;;;;;;5078705;28;20544;-76
2020/12/20 06:55:37;;;;;;;3.80;2.63;;;9.50;99.90;;;;;;5079331;28;20540;-76
2020/12/20 06:58:09;;;;;;;2.33;2.13;;;9.50;99.90;;;;;;5079800;28;20492;-75
2020/12/20 07:00:48;;;;;;;3.07;2.77;;;9.70;99.90;;;;;;5078020;28;20481;-76
2020/12/20 07:03:38;;;;;;;4.37;2.73;;;9.70;99.90;;;;;;5077988;28;20481;-75
2020/12/20 07:06:17;;;;;;;4.00;3.20;;;9.60;99.90;;;;;;5062619;28;20516;-76
2020/12/20 07:08:59;;;;;;;2.90;2.70;;;9.70;99.90;;;;;;5080038;28;20478;-75
2020/12/20 07:11:27;;;;;;;2.93;2.50;;;9.70;99.90;;;;;;5061717;28;20476;-75
2020/12/20 07:13:55;;;;;;;2.53;2.30;;;9.70;99.90;;;;;;5077651;28;20522;-76
2020/12/20 07:16:24;;;;;;;3.80;2.33;;;9.60;99.90;;;;;;5078532;28;20493;-74
2020/12/20 07:18:54;;;;;;;2.27;2.07;;;9.50;99.90;;;;;;5077834;28;20505;-73
2020/12/20 07:22:03;;;;;;;2.50;2.13;;;9.50;99.90;;;;;;5077272;28;20480;-72
2020/12/20 07:24:32;;;;;;;2.57;2.00;;;9.70;99.90;;;;;;5074474;28;20492;-73
2020/12/20 07:27:01;;;;;;;4.50;2.70;;;9.60;99.90;;;;;;5083473;28;20445;-73
2020/12/20 07:29:30;;;;;;;2.30;2.10;;;9.60;99.90;;;;;;5076651;28;20489;-73
2020/12/20 07:32:01;;;;;;;2.40;2.20;;;9.50;99.90;;;;;;5078344;28;20453;-75
2020/12/20 07:34:29;;;;;;;2.87;2.67;;;9.50;99.90;;;;;;5078329;28;20538;-75
2020/12/20 07:36:57;;;;;;;3.10;2.90;;;9.50;99.90;;;;;;5059232;28;20529;-72
2020/12/20 07:39:24;;;;;;;2.93;2.73;;;9.50;99.90;;;;;;5077671;28;21036;-73
2020/12/20 07:41:52;;;;;;;2.40;2.20;;;9.60;99.90;;;;;;5077565;28;20470;-73
2020/12/20 07:44:19;;;;;;;2.30;2.03;;;9.60;99.90;;;;;;5059213;28;20458;-72
2020/12/20 07:46:46;;;;;;;2.40;2.00;;;9.60;99.90;;;;;;5057802;28;20546;-73
2020/12/20 07:49:15;;;;;;;2.20;2.00;;;9.70;99.90;;;;;;5078171;28;20487;-74
2020/12/20 07:51:43;;;;;;;2.33;2.13;;;9.70;99.90;;;;;;5077534;28;20821;-74
2020/12/20 07:54:12;;;;;;;2.40;2.17;;;9.80;99.90;;;;;;5059213;28;20507;-73
2020/12/20 07:56:41;;;;;;;1.97;1.80;;;9.70;99.90;;;;;;5083878;28;20474;-74
2020/12/20 07:59:09;;;;;;;2.07;1.87;;;9.70;99.90;;;;;;5078018;28;20480;-73
2020/12/20 08:01:38;;;;;;;1.73;1.63;;;9.80;99.90;;;;;;5076523;28;20549;-73
2020/12/20 08:04:07;;;;;;;1.90;1.70;;;9.80;99.90;;;;;;5058792;28;20888;-72
2020/12/20 08:06:35;;;;;;;2.00;1.70;;;9.70;99.90;;;;;;5079893;28;20510;-74
2020/12/20 08:09:07;;;;;;;2.37;1.80;;;9.80;99.90;;;;;;5076891;28;20537;-74
2020/12/20 08:11:34;;;;;;;2.50;1.97;;;9.80;99.90;;;;;;5076956;28;20462;-77
2020/12/20 08:14:04;;;;;;;2.60;2.40;;;10.00;99.90;;;;;;5077416;28;22437;-74
2020/12/20 08:16:32;;;;;;;2.20;2.00;;;10.00;99.90;;;;;;5076863;28;20516;-73
2020/12/20 08:19:02;;;;;;;1.73;1.63;;;10.00;99.90;;;;;;5077426;28;20480;-72
2020/12/20 08:21:57;;;;;;;1.97;1.77;;;10.20;99.90;;;;;;5075390;28;20461;-75
2020/12/20 08:24:29;;;;;;;2.53;2.20;;;10.20;99.90;;;;;;5077595;28;20841;-74
2020/12/20 08:26:58;;;;;;;2.13;1.80;;;10.20;99.90;;;;;;5076919;28;20500;-74
2020/12/20 08:29:26;;;;;;;3.40;1.80;;;10.20;99.90;;;;;;5075192;28;20538;-73
2020/12/20 08:31:53;;;;;;;2.70;2.50;;;10.20;99.90;;;;;;5074098;28;20522;-73
2020/12/20 08:34:21;;;;;;;2.23;2.03;;;10.40;99.90;;;;;;5076488;28;20789;-74
2020/12/20 08:36:50;;;;;;;4.30;2.87;;;10.50;99.90;;;;;;5081475;28;20474;-70
2020/12/20 08:39:22;;;;;;;2.13;2.03;;;10.40;99.90;;;;;;5070671;28;20492;-71
2020/12/20 08:42:02;;;;;;;3.27;2.37;;;10.30;99.90;;;;;;5081778;28;21105;-71
2020/12/20 08:44:30;;;;;;;2.43;2.00;;;10.30;99.90;;;;;;5078753;28;20460;-73
2020/12/20 08:47:08;;;;;;;5.40;2.50;;;10.60;99.90;;;;;;5076770;28;20541;-72
2020/12/20 08:49:36;;;;;;;3.20;2.90;;;10.70;99.90;;;;;;5059777;28;20509;-74
2020/12/20 08:52:11;;;;;;;2.80;2.10;;;10.90;99.90;;;;;;5078919;28;20966;-74
2020/12/20 08:54:39;;;;;;;2.80;2.40;;;10.70;99.90;;;;;;5089595;28;20543;-77
2020/12/20 08:57:10;;;;;;;3.03;2.67;;;10.90;99.90;;;;;;5099677;28;20721;-72
2020/12/20 08:59:39;;;;;;;3.30;2.83;;;11.00;99.90;;;;;;5077547;28;20538;-72
2020/12/20 09:02:08;;;;;;;2.83;2.07;;;11.20;99.90;;;;;;5074580;28;20462;-73
2020/12/20 09:04:37;;;;;;;4.60;2.50;;;11.30;99.90;;;;;;5049438;28;20472;-72
2020/12/20 09:07:07;;;;;;;2.93;2.07;;;11.40;99.90;;;;;;5077096;28;20462;-72
2020/12/20 09:09:35;;;;;;;2.38;2.10;;;11.50;99.90;;;;;;5080006;28;20442;-71
2020/12/20 09:12:16;;;;;;;2.43;2.23;;;11.40;99.90;;;;;;5059371;28;20282;-71
2020/12/20 09:14:59;;;;;;;2.40;2.20;;;11.40;99.90;;;;;;5080699;28;20585;-72
2020/12/20 09:17:31;;;;;;;3.27;2.97;;;11.50;99.90;;;;;;5083233;28;21246;-72
2020/12/20 09:19:58;;;;;;;2.37;2.20;;;11.50;99.90;;;;;;5063090;28;20470;-74
2020/12/20 09:22:49;;;;;;;3.80;2.37;;;11.60;99.90;;;;;;5088029;28;20450;-72
2020/12/20 09:25:29;;;;;;;5.43;2.87;;;11.70;99.90;;;;;;5087783;28;20460;-73
2020/12/20 09:27:59;;;;;;;2.37;2.17;;;11.60;99.90;;;;;;5078793;28;20478;-73
2020/12/20 09:30:43;;;;;;;2.57;2.37;;;11.60;99.90;;;;;;5087635;28;20458;-73
2020/12/20 09:33:21;;;;;;;4.20;2.10;;;11.50;99.90;;;;;;5089989;28;20470;-72
2020/12/20 09:35:52;;;;;;;2.70;2.50;;;11.50;99.90;;;;;;5081091;28;20976;-71
2020/12/20 09:38:19;;;;;;;4.47;3.43;;;11.60;99.90;;;;;;5086653;28;20513;-72
2020/12/20 09:40:46;;;;;;;2.80;2.60;;;11.40;99.90;;;;;;5096948;28;20482;-72
2020/12/20 09:43:21;;;;;;;3.60;3.10;;;11.10;99.90;;;;;;5068800;28;20470;-73
2020/12/20 09:45:48;;;;;;;3.43;2.73;;;11.10;99.90;;;;;;5086747;28;20547;-72
2020/12/20 09:48:15;;;;;;;5.43;3.00;;;11.00;99.90;;;;;;5090038;28;20477;-72
2020/12/20 09:50:43;;;;;;;3.70;2.77;;;11.00;99.90;;;;;;5070836;28;20498;-72
2020/12/20 09:53:10;;;;;;;5.70;3.37;;;11.00;99.90;;;;;;5090418;28;20769;-72
2020/12/20 09:55:41;;;;;;;3.20;2.80;;;10.90;99.90;;;;;;5090124;28;20462;-72
2020/12/20 09:58:12;;;;;;;5.10;4.00;;;10.90;99.90;;;;;;5071695;28;20476;-72
2020/12/20 10:00:41;;;;;;;4.00;3.03;;;10.80;99.90;;;;;;5071002;28;20466;-73
2020/12/20 10:03:09;;;;;;;4.43;4.03;;;10.80;99.90;;;;;;5089940;28;20468;-72
2020/12/20 10:05:39;;;;;;;3.20;2.53;;;10.90;99.90;;;;;;5089804;28;20814;-73
2020/12/20 10:08:07;;;;;;;3.63;3.10;;;10.90;99.90;;;;;;5071069;28;21076;-74
2020/12/20 10:10:34;;;;;;;5.60;4.33;;;10.70;99.90;;;;;;5071484;28;20450;-72
2020/12/20 10:13:03;;;;;;;3.37;3.17;;;10.60;99.90;;;;;;5090201;28;20465;-73
2020/12/20 10:15:30;;;;;;;5.70;3.43;;;10.70;99.90;;;;;;5087890;28;20449;-71
2020/12/20 10:18:01;;;;;;;3.57;3.10;;;10.60;99.90;;;;;;5092568;28;20531;-73
2020/12/20 10:20:28;;;;;;;3.10;2.90;;;10.50;99.90;;;;;;5086343;28;20461;-72
2020/12/20 10:22:55;;;;;;;4.73;3.50;;;10.50;99.90;;;;;;5089269;28;20614;-72
2020/12/20 10:25:23;;;;;;;3.60;3.30;;;10.50;99.90;;;;;;5070875;28;20451;-72
2020/12/20 10:27:50;;;;;;;4.53;3.43;;;10.50;99.90;;;;;;5090822;28;20489;-72
2020/12/20 10:30:17;;;;;;;3.87;3.57;;;10.50;99.90;;;;;;5070958;28;20969;-73
2020/12/20 10:32:46;;;;;;;4.07;3.67;;;10.50;99.90;;;;;;5089213;28;20445;-71
2020/12/20 10:35:14;;;;;;;3.70;3.27;;;10.60;99.90;;;;;;5089565;28;20480;-71
2020/12/20 10:37:41;;;;;;;3.50;3.20;;;10.60;99.90;;;;;;5089095;28;20463;-71
2020/12/20 10:40:08;;;;;;;4.00;3.60;;;10.70;99.90;;;;;;5088936;28;21123;-72
2020/12/20 10:42:35;;;;;;;4.47;4.00;;;10.60;99.90;;;;;;5088153;28;20453;-71
2020/12/20 10:45:03;;;;;;;4.23;3.83;;;10.70;99.90;;;;;;5089021;28;20504;-72
2020/12/20 10:47:30;;;;;;;4.20;3.80;;;10.70;99.90;;;;;;5070515;28;20488;-72
2020/12/20 10:49:57;;;;;;;3.40;3.07;;;10.80;99.90;;;;;;5088964;28;20474;-72
2020/12/20 10:52:28;;;;;;;3.27;2.97;;;10.90;99.90;;;;;;5098937;28;20583;-71
2020/12/20 10:54:55;;;;;;;4.00;3.70;;;11.10;99.90;;;;;;5089169;28;20507;-72
2020/12/20 10:57:22;;;;;;;3.67;3.37;;;11.40;99.90;;;;;;5088445;28;20510;-72
2020/12/20 10:59:49;;;;;;;3.43;3.13;;;11.80;99.90;;;;;;5089051;28;20482;-71
2020/12/20 11:02:17;;;;;;;4.90;2.90;;;12.10;99.90;;;;;;5069246;28;20446;-73
2020/12/20 11:04:44;;;;;;;5.23;2.77;;;12.40;99.90;;;;;;5086501;28;20436;-72
2020/12/20 11:07:11;;;;;;;3.20;2.90;;;12.70;99.90;;;;;;5063448;28;20490;-72
2020/12/20 11:09:39;;;;;;;3.40;3.10;;;12.70;99.90;;;;;;5081195;28;20495;-72
2020/12/20 11:12:07;;;;;;;3.00;2.80;;;12.50;99.90;;;;;;5076812;28;20507;-71
2020/12/20 11:14:34;;;;;;;3.67;2.80;;;12.50;99.90;;;;;;5071235;28;20490;-71
2020/12/20 11:17:01;;;;;;;3.63;3.30;;;12.30;99.90;;;;;;5085399;28;21009;-73
2020/12/20 11:19:29;;;;;;;3.00;2.80;;;12.10;99.90;;;;;;5088389;28;20227;-71
2020/12/20 11:21:57;;;;;;;2.60;2.40;;;11.90;99.90;;;;;;5088130;28;20459;-71
2020/12/20 11:24:25;;;;;;;3.00;2.70;;;12.00;99.90;;;;;;5094388;28;20456;-72
2020/12/20 11:26:54;;;;;;;2.63;2.40;;;11.90;99.90;;;;;;5088232;28;20509;-71
2020/12/20 11:29:22;;;;;;;3.27;2.83;;;12.00;99.90;;;;;;5087603;28;20485;-73
2020/12/20 11:31:49;;;;;;;3.43;3.20;;;12.10;99.90;;;;;;5067662;28;20453;-71
2020/12/20 11:34:17;;;;;;;2.93;2.70;;;12.40;99.90;;;;;;5082687;28;20503;-72
2020/12/20 11:36:44;;;;;;;3.55;3.25;;;12.50;99.90;;;;;;5084417;28;20461;-73
2020/12/20 11:39:13;;;;;;;3.53;2.90;;;12.70;99.90;;;;;;5090798;28;20291;-73
2020/12/20 11:41:41;;;;;;;3.23;2.93;;;12.90;99.90;;;;;;5073617;28;20563;-72
2020/12/20 11:44:10;;;;;;;2.47;2.03;;;13.00;99.90;;;;;;5092417;28;20468;-70
2020/12/20 11:46:37;;;;;;;2.50;2.00;;;13.20;99.90;;;;;;5085154;28;20462;-72
2020/12/20 11:49:05;;;;;;;2.60;2.20;;;13.20;99.90;;;;;;5071007;28;20471;-72
2020/12/20 11:51:32;;;;;;;4.13;2.37;;;13.40;99.90;;;;;;5066138;28;20520;-72
2020/12/20 11:53:59;;;;;;;2.80;2.60;;;13.30;99.90;;;;;;5083378;28;21228;-72
2020/12/20 11:56:27;;;;;;;3.10;2.20;;;13.30;99.90;;;;;;5094790;28;20474;-72
2020/12/20 11:58:54;;;;;;;6.83;5.47;;;13.00;99.90;;;;;;5091304;28;20923;-73
2020/12/20 12:01:23;;;;;;;5.00;3.73;;;13.00;99.90;;;;;;5093002;28;21403;-72
2020/12/20 12:03:50;;;;;;;3.58;3.28;;;13.20;99.90;;;;;;5087196;28;21029;-71
2020/12/20 12:06:18;;;;;;;2.50;2.30;;;13.20;99.90;;;;;;5082411;28;20200;-71
2020/12/20 12:08:45;;;;;;;2.37;2.17;;;12.80;99.90;;;;;;5080199;28;20478;-72
2020/12/20 12:11:20;;;;;;;3.50;2.30;;;12.80;99.90;;;;;;5066581;28;20466;-72
2020/12/20 12:13:47;;;;;;;2.43;2.23;;;12.70;99.90;;;;;;5081679;28;20583;-70
2020/12/20 12:16:16;;;;;;;2.63;2.33;;;12.60;99.90;;;;;;5083837;28;20447;-71
2020/12/20 12:18:45;;;;;;;3.50;3.17;;;12.50;99.90;;;;;;5086014;28;20462;-71
2020/12/20 12:21:15;;;;;;;3.53;3.13;;;12.40;99.90;;;;;;5083538;28;20481;-71
2020/12/20 12:23:46;;;;;;;3.97;2.60;;;12.40;99.90;;;;;;5091348;28;20449;-71
2020/12/20 12:26:26;;;;;;;2.67;2.47;;;12.40;99.90;;;;;;5084055;28;20555;-73
2020/12/20 12:28:53;;;;;;;3.20;2.40;;;12.50;99.90;;;;;;5084239;28;20528;-71
2020/12/20 12:31:20;;;;;;;2.83;2.37;;;12.40;99.90;;;;;;5083592;28;20521;-72
2020/12/20 12:33:48;;;;;;;2.90;2.70;;;12.30;99.90;;;;;;5085894;28;20487;-69
2020/12/20 12:36:15;;;;;;;3.10;2.60;;;12.40;99.90;;;;;;5078910;28;20585;-69
2020/12/20 12:38:42;;;;;;;3.90;2.33;;;12.40;99.90;;;;;;5080306;28;20542;-73
2020/12/20 12:41:09;;;;;;;2.57;2.37;;;12.40;99.90;;;;;;5080258;28;20476;-70
2020/12/20 12:43:36;;;;;;;3.70;1.93;;;12.50;99.90;;;;;;5078011;28;20468;-72
2020/12/20 12:46:03;;;;;;;2.93;2.53;;;12.50;99.90;;;;;;5086543;28;20526;-70
2020/12/20 12:48:31;;;;;;;3.20;2.50;;;12.70;99.90;;;;;;5066556;28;20509;-71
2020/12/20 12:50:58;;;;;;;2.77;2.43;;;12.80;99.90;;;;;;5087866;28;20849;-73
2020/12/20 12:53:26;;;;;;;2.77;2.23;;;12.60;99.90;;;;;;5090046;28;20459;-71
2020/12/20 12:55:53;;;;;;;3.30;2.53;;;12.70;99.90;;;;;;5086730;28;20515;-71
2020/12/20 12:58:20;;;;;;;3.53;1.97;;;12.70;99.90;;;;;;5081445;28;21130;-70
2020/12/20 13:00:49;;;;;;;3.03;1.70;;;12.50;1.00;;;;;;5082280;28;20467;-70